createdAt,value
2019-03-16T00:01:57.193Z,79.96
2019-03-16T00:06:56.996Z,80.28
2019-03-16T00:09:27.036Z,79.84
2019-03-16T00:11:57.185Z,79.88
2019-03-16T00:14:27.128Z,79.66
2019-03-16T00:16:57.164Z,79.03
2019-03-16T00:19:27.552Z,78.49
2019-03-16T00:21:57.590Z,78.41
2019-03-16T00:24:27.642Z,78.70
2019-03-16T00:26:57.690Z,79.16
2019-03-16T00:29:27.721Z,77.91
2019-03-16T00:31:58.073Z,78.20
2019-03-16T00:34:28.085Z,78.68
2019-03-16T00:36:58.153Z,78.79
2019-03-16T00:39:28.191Z,78.65
2019-03-16T00:44:38.164Z,78.87
2019-03-16T00:47:08.205Z,77.90
2019-03-16T00:49:38.237Z,77.72
2019-03-16T00:52:08.286Z,78.23
2019-03-16T00:54:38.436Z,78.39
2019-03-16T00:57:08.588Z,78.20
2019-03-16T00:59:38.633Z,78.82
2019-03-16T01:02:08.685Z,79.02
2019-03-16T01:04:38.713Z,79.65
2019-03-16T01:07:08.750Z,79.84
2019-03-16T01:09:39.162Z,79.54
2019-03-16T01:12:09.212Z,79.77
2019-03-16T01:14:39.565Z,79.75
2019-03-16T01:17:09.604Z,80.34
2019-03-16T01:19:39.646Z,80.97
2019-03-16T01:22:09.678Z,80.69
2019-03-16T01:27:19.798Z,80.90
2019-03-16T01:29:49.824Z,80.92
2019-03-16T01:32:19.858Z,80.53
2019-03-16T01:34:49.894Z,81.05
2019-03-16T01:37:19.925Z,81.08
2019-03-16T01:39:50.256Z,81.22
2019-03-16T01:42:20.698Z,81.01
2019-03-16T01:44:50.756Z,79.70
2019-03-16T01:47:20.805Z,79.49
2019-03-16T01:49:50.848Z,79.47
2019-03-16T01:52:21.140Z,79.72
2019-03-16T01:54:51.187Z,80.67
2019-03-16T01:57:21.239Z,80.17
2019-03-16T01:59:51.291Z,79.93
2019-03-16T02:02:21.311Z,79.73
2019-03-16T02:04:51.745Z,79.80
2019-03-16T02:07:21.781Z,79.54
2019-03-16T02:09:51.831Z,79.28
2019-03-16T02:12:21.867Z,78.38
2019-03-16T02:14:52.205Z,78.94
2019-03-16T02:17:22.238Z,78.67
2019-03-16T02:19:52.549Z,78.09
2019-03-16T02:22:22.660Z,77.37
2019-03-16T02:24:52.723Z,77.67
2019-03-16T02:27:23.125Z,77.23
2019-03-16T02:29:53.174Z,77.93
2019-03-16T02:32:23.229Z,78.35
2019-03-16T02:34:53.277Z,78.13
2019-03-16T02:37:23.324Z,78.08
2019-03-16T02:39:53.341Z,78.31
2019-03-16T02:42:23.410Z,77.81
2019-03-16T02:44:53.539Z,77.72
2019-03-16T02:47:23.569Z,77.89
2019-03-16T02:49:53.965Z,78.61
2019-03-16T02:52:24.009Z,79.07
2019-03-16T02:54:54.065Z,78.96
2019-03-16T02:57:24.412Z,78.08
2019-03-16T02:59:54.474Z,78.04
2019-03-16T03:02:24.861Z,78.47
2019-03-16T03:04:54.904Z,78.05
2019-03-16T03:07:24.948Z,78.43
2019-03-16T03:09:54.989Z,78.53
2019-03-16T03:12:25.336Z,78.71
2019-03-16T03:14:55.381Z,78.58
2019-03-16T03:17:25.774Z,78.32
2019-03-16T03:19:55.822Z,77.69
2019-03-16T03:22:26.097Z,78.05
2019-03-16T03:24:56.162Z,77.79
2019-03-16T03:27:26.205Z,77.47
2019-03-16T03:29:57.511Z,78.14
2019-03-16T03:32:26.799Z,77.39
2019-03-16T03:34:56.836Z,77.72
2019-03-16T03:37:26.886Z,78.03
2019-03-16T03:39:56.918Z,78.59
2019-03-16T03:42:26.945Z,78.13
2019-03-16T03:44:56.999Z,79.23
2019-03-16T03:52:48.518Z,78.72
2019-03-16T03:55:18.565Z,78.72
2019-03-16T03:57:48.598Z,78.18
2019-03-16T04:00:18.672Z,78.60
2019-03-16T04:05:28.038Z,78.04
2019-03-16T04:07:58.070Z,78.38
2019-03-16T04:10:28.448Z,78.50
2019-03-16T04:15:38.144Z,80.35
2019-03-16T04:18:08.279Z,80.35
2019-03-16T04:20:38.548Z,80.79
2019-03-16T04:23:08.612Z,82.30
2019-03-16T04:25:38.650Z,82.30
2019-03-16T04:28:08.692Z,81.66
2019-03-16T04:30:38.730Z,82.21
2019-03-16T04:35:48.142Z,82.42
2019-03-16T04:38:18.165Z,81.38
2019-03-16T04:43:27.568Z,82.22
2019-03-16T04:45:57.941Z,82.00
2019-03-16T04:48:28.246Z,82.90
2019-03-16T04:50:58.285Z,83.35
2019-03-16T04:53:28.619Z,83.75
2019-03-16T04:55:59.033Z,84.16
2019-03-16T04:58:29.063Z,84.90
2019-03-16T05:00:59.104Z,85.26
2019-03-16T05:03:29.150Z,85.44
2019-03-16T05:05:59.185Z,85.27
2019-03-16T05:08:29.217Z,85.00
2019-03-16T05:10:59.268Z,85.18
2019-03-16T05:13:29.302Z,85.57
2019-03-16T05:15:59.332Z,84.26
2019-03-16T05:18:29.387Z,85.06
2019-03-16T05:20:59.423Z,83.97
2019-03-16T05:23:29.827Z,83.37
2019-03-16T05:25:59.858Z,83.58
2019-03-16T05:28:30.149Z,84.29
2019-03-16T05:31:00.187Z,84.56
2019-03-16T05:38:48.972Z,84.30
2019-03-16T05:41:18.982Z,84.56
2019-03-16T05:43:49.023Z,84.82
2019-03-16T05:46:19.415Z,85.85
2019-03-16T05:51:28.814Z,87.07
2019-03-16T05:56:38.217Z,88.93
2019-03-16T05:59:08.253Z,88.93
2019-03-16T06:01:38.312Z,88.88
2019-03-16T06:04:08.674Z,89.32
2019-03-16T06:06:38.791Z,89.15
2019-03-16T06:09:08.755Z,89.84
2019-03-16T06:11:38.782Z,89.42
2019-03-16T06:14:08.869Z,89.21
2019-03-16T06:16:39.150Z,89.11
2019-03-16T06:19:09.169Z,89.18
2019-03-16T06:21:39.219Z,89.58
2019-03-16T06:24:09.256Z,89.73
2019-03-16T06:26:39.303Z,89.73
2019-03-16T06:29:09.316Z,88.83
2019-03-16T06:31:39.373Z,88.79
2019-03-16T06:34:09.390Z,89.37
2019-03-16T06:36:39.416Z,89.41
2019-03-16T06:41:49.176Z,88.62
2019-03-16T06:44:19.204Z,88.62
2019-03-16T06:46:49.258Z,88.86
2019-03-16T06:49:19.616Z,88.07
2019-03-16T06:57:08.715Z,88.47
2019-03-16T06:59:39.105Z,89.04
2019-03-16T07:02:09.138Z,89.55
2019-03-16T07:04:39.564Z,89.40
2019-03-16T07:07:09.605Z,89.33
2019-03-16T07:09:39.981Z,89.41
2019-03-16T07:12:10.021Z,89.58
2019-03-16T07:14:40.050Z,90.01
2019-03-16T07:17:10.425Z,90.12
2019-03-16T07:19:40.756Z,89.96
2019-03-16T07:24:51.708Z,90.62
2019-03-16T07:27:26.095Z,90.95
2019-03-16T07:29:50.572Z,91.00
2019-03-16T07:32:20.899Z,90.96
2019-03-16T07:34:50.923Z,91.10
2019-03-16T07:37:20.949Z,91.67
2019-03-16T07:39:50.966Z,90.64
2019-03-16T07:42:21.020Z,90.16
2019-03-16T07:44:51.361Z,90.30
2019-03-16T07:47:21.398Z,90.73
2019-03-16T07:49:51.484Z,90.88
2019-03-16T07:52:21.465Z,90.89
2019-03-16T07:54:51.493Z,91.44
2019-03-16T07:57:21.529Z,90.78
2019-03-16T07:59:51.569Z,90.61
2019-03-16T08:02:21.614Z,90.46
2019-03-16T08:04:51.891Z,90.71
2019-03-16T08:07:21.922Z,91.11
2019-03-16T08:09:51.950Z,91.28
2019-03-16T08:12:21.989Z,91.41
2019-03-16T08:14:52.013Z,91.09
2019-03-16T08:17:22.062Z,91.07
2019-03-16T08:19:52.094Z,91.09
2019-03-16T08:22:22.115Z,91.23
2019-03-16T08:24:52.431Z,91.01
2019-03-16T08:27:22.463Z,90.75
2019-03-16T08:29:52.768Z,90.60
2019-03-16T08:32:25.335Z,90.97
2019-03-16T08:34:52.829Z,90.64
2019-03-16T08:37:23.209Z,91.11
2019-03-16T08:39:53.240Z,90.41
2019-03-16T08:42:23.290Z,91.07
2019-03-16T08:44:53.307Z,90.97
2019-03-16T08:47:23.333Z,91.50
2019-03-16T08:49:53.364Z,91.09
2019-03-16T08:55:03.071Z,90.85
2019-03-16T08:57:33.107Z,91.52
2019-03-16T09:00:03.182Z,91.88
2019-03-16T09:02:33.196Z,92.06
2019-03-16T09:05:03.528Z,91.10
2019-03-16T09:07:33.569Z,91.11
2019-03-16T09:10:03.603Z,90.99
2019-03-16T09:12:33.630Z,91.62
2019-03-16T09:15:03.659Z,91.15
2019-03-16T09:17:33.712Z,91.12
2019-03-16T09:20:03.732Z,91.76
2019-03-16T09:22:34.038Z,92.63
2019-03-16T09:25:04.074Z,92.60
2019-03-16T09:27:34.108Z,92.22
2019-03-16T09:30:04.145Z,91.37
2019-03-16T09:32:34.169Z,92.07
2019-03-16T09:35:04.187Z,92.95
2019-03-16T09:37:34.222Z,93.33
2019-03-16T09:40:04.558Z,93.32
2019-03-16T09:42:34.897Z,93.05
2019-03-16T09:45:04.934Z,93.46
2019-03-16T09:47:34.967Z,93.34
2019-03-16T09:50:07.374Z,93.45
2019-03-16T09:52:35.759Z,93.47
2019-03-16T09:55:08.972Z,93.07
2019-03-16T09:57:39.268Z,92.83
2019-03-16T10:02:57.768Z,93.11
2019-03-16T10:05:27.940Z,92.57
2019-03-16T10:07:58.144Z,92.92
2019-03-16T10:10:28.075Z,93.07
2019-03-16T10:12:58.438Z,93.38
2019-03-16T10:15:28.620Z,93.19
2019-03-16T10:17:59.097Z,92.93
2019-03-16T10:20:29.097Z,93.00
2019-03-16T10:22:59.263Z,93.06
2019-03-16T10:25:29.453Z,91.88
2019-03-16T10:27:59.549Z,92.06
2019-03-16T10:30:29.926Z,91.87
2019-03-16T10:33:00.024Z,91.62
2019-03-16T10:35:30.085Z,91.50
2019-03-16T10:38:00.183Z,92.05
2019-03-16T10:40:30.556Z,91.73
2019-03-16T10:43:00.694Z,91.51
2019-03-16T10:45:30.782Z,90.78
2019-03-16T10:48:01.209Z,89.51
2019-03-16T10:50:31.136Z,90.43
2019-03-16T10:53:01.183Z,90.42
2019-03-16T10:55:31.418Z,90.07
2019-03-16T10:58:01.322Z,90.54
2019-03-16T11:00:31.338Z,90.39
2019-03-16T11:05:40.762Z,90.55
2019-03-16T11:08:10.859Z,90.49
2019-03-16T11:10:40.895Z,90.60
2019-03-16T11:13:10.954Z,90.12
2019-03-16T11:15:41.203Z,90.43
2019-03-16T11:18:11.226Z,90.35
2019-03-16T11:20:41.418Z,90.58
2019-03-16T11:25:50.861Z,90.02
2019-03-16T11:28:20.928Z,89.24
2019-03-16T11:30:51.332Z,88.30
2019-03-16T11:33:22.190Z,87.74
2019-03-16T11:35:52.049Z,87.48
2019-03-16T11:38:23.041Z,87.62
2019-03-16T11:43:33.636Z,85.96
2019-03-16T11:46:04.367Z,86.07
2019-03-16T11:48:34.570Z,85.84
2019-03-16T11:51:04.856Z,85.32
2019-03-16T11:56:18.360Z,84.14
2019-03-16T11:58:44.622Z,83.62
2019-03-16T12:01:14.649Z,82.73
2019-03-16T12:06:24.693Z,81.82
2019-03-16T12:08:55.033Z,82.39
2019-03-16T12:11:25.068Z,81.84
2019-03-16T12:13:55.469Z,82.12
2019-03-16T12:16:25.553Z,82.29
2019-03-16T12:18:55.922Z,82.44
2019-03-16T12:21:26.234Z,83.16
2019-03-16T12:23:56.289Z,83.64
2019-03-16T12:26:26.315Z,83.87
2019-03-16T12:28:56.369Z,84.67
2019-03-16T12:31:26.406Z,85.27
2019-03-16T12:33:56.667Z,84.48
2019-03-16T12:36:26.489Z,84.09
2019-03-16T12:38:56.523Z,84.02
2019-03-16T12:41:26.878Z,83.06
2019-03-16T12:43:56.920Z,82.78
2019-03-16T12:49:06.329Z,81.65
2019-03-16T12:51:36.385Z,80.72
2019-03-16T12:54:06.424Z,79.75
2019-03-16T12:56:36.486Z,79.67
2019-03-16T12:59:10.765Z,79.78
2019-03-16T13:04:16.302Z,80.42
2019-03-16T13:06:46.685Z,79.15
2019-03-16T13:09:16.734Z,79.20
2019-03-16T13:11:47.028Z,79.75
2019-03-16T13:14:17.081Z,78.50
2019-03-16T13:16:47.131Z,78.96
2019-03-16T13:19:17.471Z,78.88
2019-03-16T13:21:47.507Z,79.75
2019-03-16T13:24:17.548Z,78.92
2019-03-16T13:26:47.570Z,78.74
2019-03-16T13:29:17.632Z,79.60
2019-03-16T13:31:47.669Z,79.20
2019-03-16T13:34:17.720Z,78.22
2019-03-16T13:36:47.758Z,77.48
2019-03-16T13:39:17.802Z,78.24
2019-03-16T13:41:48.170Z,77.49
2019-03-16T13:44:18.204Z,77.22
2019-03-16T13:46:48.253Z,77.54
2019-03-16T13:49:18.589Z,77.63
2019-03-16T13:51:48.623Z,77.53
2019-03-16T13:54:18.673Z,77.31
2019-03-16T13:56:48.710Z,77.71
2019-03-16T13:59:18.758Z,78.57
2019-03-16T14:01:49.084Z,78.38
2019-03-16T14:04:19.422Z,78.83
2019-03-16T14:06:49.445Z,79.38
2019-03-16T14:09:19.487Z,78.97
2019-03-16T14:11:49.540Z,78.77
2019-03-16T14:14:19.875Z,79.90
2019-03-16T14:19:29.942Z,79.36
2019-03-16T14:21:59.983Z,79.60
2019-03-16T14:24:30.033Z,78.18
2019-03-16T14:27:00.400Z,77.48
2019-03-16T14:29:30.475Z,78.02
2019-03-16T14:32:00.498Z,77.42
2019-03-16T14:34:30.548Z,77.25
2019-03-16T14:37:00.570Z,77.30
2019-03-16T14:39:30.986Z,76.37
2019-03-16T14:42:01.014Z,76.42
2019-03-16T14:44:31.060Z,76.47
2019-03-16T14:47:01.444Z,77.00
2019-03-16T14:49:31.486Z,77.18
2019-03-16T14:52:01.512Z,77.59
2019-03-16T14:54:31.557Z,77.64
2019-03-16T14:57:02.127Z,76.14
2019-03-16T14:59:31.624Z,75.74
2019-03-16T15:02:01.645Z,76.10
2019-03-16T15:04:51.410Z,75.71
2019-03-16T15:07:21.734Z,75.06
2019-03-16T15:09:51.820Z,75.46
2019-03-16T15:12:21.868Z,75.17
2019-03-16T15:14:51.868Z,76.73
2019-03-16T15:17:21.961Z,76.37
2019-03-16T15:19:51.993Z,76.10
2019-03-16T15:22:22.336Z,75.68
2019-03-16T15:24:52.686Z,75.70
2019-03-16T15:27:23.130Z,75.41
2019-03-16T15:29:53.184Z,74.97
2019-03-16T15:32:23.228Z,74.63
2019-03-16T15:34:53.542Z,75.58
2019-03-16T15:37:23.867Z,76.36
2019-03-16T15:39:53.915Z,77.05
2019-03-16T15:42:23.952Z,76.43
2019-03-16T15:44:54.002Z,76.07
2019-03-16T15:50:03.156Z,75.86
2019-03-16T15:52:33.479Z,75.88
2019-03-16T15:57:43.145Z,75.44
2019-03-16T16:00:15.725Z,75.23
2019-03-16T16:02:45.776Z,76.06
2019-03-16T16:05:16.173Z,75.87
2019-03-16T16:07:46.214Z,75.69
2019-03-16T16:10:16.598Z,75.20
2019-03-16T16:12:46.617Z,75.88
2019-03-16T16:15:16.666Z,76.64
2019-03-16T16:17:46.696Z,76.51
2019-03-16T16:20:19.669Z,76.22
2019-03-16T16:22:49.688Z,76.80
2019-03-16T16:25:20.072Z,76.62
2019-03-16T16:27:50.100Z,76.31
2019-03-16T16:30:22.766Z,76.29
2019-03-16T16:35:32.184Z,76.19
2019-03-16T16:38:02.560Z,75.43
2019-03-16T16:40:32.611Z,75.20
2019-03-16T16:43:02.721Z,76.85
2019-03-16T16:45:32.745Z,76.44
2019-03-16T16:48:02.793Z,76.67
2019-03-16T16:50:32.835Z,76.56
2019-03-16T16:53:02.864Z,76.74
2019-03-16T16:55:33.270Z,76.13
2019-03-16T16:58:03.295Z,76.27
2019-03-16T17:00:33.354Z,76.02
2019-03-16T17:05:43.440Z,75.68
2019-03-16T17:08:12.850Z,76.32
2019-03-16T17:10:42.897Z,76.97
2019-03-16T17:13:12.935Z,76.29
2019-03-16T17:15:42.980Z,76.88
2019-03-16T17:18:13.481Z,76.67
2019-03-16T17:20:43.869Z,76.77
2019-03-16T17:23:13.898Z,77.16
2019-03-16T17:25:43.933Z,77.41
2019-03-16T17:28:13.962Z,78.04
2019-03-16T17:30:44.007Z,76.52
2019-03-16T17:33:14.382Z,77.40
2019-03-16T17:35:44.443Z,77.70
2019-03-16T17:38:14.505Z,77.45
2019-03-16T17:40:44.549Z,77.81
2019-03-16T17:43:14.566Z,77.90
2019-03-16T17:45:44.678Z,77.66
2019-03-16T17:48:14.724Z,76.89
2019-03-16T17:50:44.842Z,76.86
2019-03-16T17:53:15.187Z,76.20
2019-03-16T17:55:45.234Z,76.46
2019-03-16T17:58:15.264Z,76.85
2019-03-16T18:00:45.298Z,76.44
2019-03-16T18:03:15.331Z,76.98
2019-03-16T18:05:45.673Z,76.60
2019-03-16T18:08:15.983Z,76.09
2019-03-16T18:10:46.022Z,74.82
2019-03-16T18:13:16.342Z,75.18
2019-03-16T18:15:46.374Z,74.46
2019-03-16T18:18:16.418Z,73.10
2019-03-16T18:20:46.441Z,73.56
2019-03-16T18:23:16.467Z,73.97
2019-03-16T18:25:46.521Z,73.33
2019-03-16T18:28:16.552Z,73.64
2019-03-16T18:30:46.601Z,73.67
2019-03-16T18:35:56.351Z,73.14
2019-03-16T18:38:26.375Z,73.79
2019-03-16T18:40:56.413Z,73.58
2019-03-16T18:43:26.446Z,73.72
2019-03-16T18:45:56.486Z,72.82
2019-03-16T18:48:26.523Z,72.13
2019-03-16T18:50:56.571Z,71.30
2019-03-16T18:53:26.927Z,71.48
2019-03-16T18:55:57.237Z,72.01
2019-03-16T18:58:37.272Z,71.24
2019-03-16T19:00:57.294Z,71.69
2019-03-16T19:06:07.319Z,71.88
2019-03-16T19:11:16.711Z,72.79
2019-03-16T19:16:26.458Z,71.36
2019-03-16T19:18:56.478Z,71.76
2019-03-16T19:21:26.528Z,72.19
2019-03-16T19:23:56.912Z,72.59
2019-03-16T19:26:29.922Z,72.60
2019-03-16T19:28:57.248Z,72.97
2019-03-16T19:31:27.558Z,71.77
2019-03-16T19:33:57.624Z,72.00
2019-03-16T19:36:27.672Z,72.08
2019-03-16T19:38:57.707Z,71.52
2019-03-16T19:41:27.760Z,72.16
2019-03-16T19:43:57.785Z,72.09
2019-03-16T19:46:28.215Z,72.24
2019-03-16T19:48:58.264Z,72.02
2019-03-16T19:51:28.743Z,71.40
2019-03-16T19:53:58.767Z,72.16
2019-03-16T19:56:28.798Z,72.69
2019-03-16T19:59:00.800Z,72.70
2019-03-16T20:01:28.865Z,71.91
2019-03-16T20:03:58.886Z,71.34
2019-03-16T20:06:28.929Z,71.83
2019-03-16T20:08:58.960Z,71.64
2019-03-16T20:11:29.355Z,71.83
2019-03-16T20:13:59.396Z,71.75
2019-03-16T20:16:29.683Z,72.08
2019-03-16T20:18:59.744Z,72.37
2019-03-16T20:21:30.035Z,72.07
2019-03-16T20:24:00.360Z,72.05
2019-03-16T20:26:30.664Z,72.31
2019-03-16T20:29:00.686Z,72.51
2019-03-16T20:31:30.735Z,71.98
2019-03-16T20:36:40.335Z,72.50
2019-03-16T20:39:10.350Z,72.86
2019-03-16T20:41:40.695Z,73.71
2019-03-16T20:44:13.360Z,74.15
2019-03-16T20:46:43.479Z,74.53
2019-03-16T20:49:13.493Z,75.29
2019-03-16T20:51:43.851Z,75.05
2019-03-16T20:54:13.870Z,75.10
2019-03-16T20:56:43.924Z,75.04
2019-03-16T20:59:13.953Z,75.77
2019-03-16T21:01:44.424Z,76.52
2019-03-16T21:06:54.162Z,76.27
2019-03-16T21:09:24.223Z,76.34
2019-03-16T21:11:54.269Z,75.50
2019-03-16T21:14:24.314Z,76.68
2019-03-16T21:16:54.357Z,76.73
2019-03-16T21:19:24.428Z,77.31
2019-03-16T21:21:54.757Z,77.08
2019-03-16T21:24:24.829Z,76.84
2019-03-16T21:26:54.871Z,76.79
2019-03-16T21:29:26.396Z,76.88
2019-03-16T21:31:54.938Z,77.65
2019-03-16T21:34:24.969Z,77.74
2019-03-16T21:36:55.030Z,78.00
2019-03-16T21:39:25.384Z,77.93
2019-03-16T21:41:55.406Z,77.62
2019-03-16T21:44:25.437Z,77.76
2019-03-16T21:46:55.490Z,77.77
2019-03-16T21:49:25.531Z,76.83
2019-03-16T21:51:55.881Z,76.99
2019-03-16T21:54:25.899Z,77.76
2019-03-16T21:56:56.226Z,77.85
2019-03-16T21:59:26.619Z,77.77
2019-03-16T22:04:35.676Z,78.48
2019-03-16T22:07:06.018Z,78.23
2019-03-16T22:09:36.436Z,77.50
2019-03-16T22:12:06.495Z,77.65
2019-03-16T22:14:36.548Z,78.06
2019-03-16T22:17:06.613Z,77.96
2019-03-16T22:19:36.612Z,78.19
2019-03-16T22:22:07.002Z,78.22
2019-03-16T22:24:37.025Z,77.57
2019-03-16T22:27:07.079Z,77.69
2019-03-16T22:29:37.118Z,77.43
2019-03-16T22:32:07.483Z,77.57
2019-03-16T22:34:37.537Z,78.05
2019-03-16T22:37:07.919Z,78.25
2019-03-16T22:39:38.246Z,77.18
2019-03-16T22:42:08.299Z,77.52
2019-03-16T22:44:38.677Z,77.86
2019-03-16T22:47:08.707Z,77.78
2019-03-16T22:49:38.739Z,77.24
2019-03-16T22:52:08.784Z,76.98
2019-03-16T22:54:38.800Z,77.41
2019-03-16T22:57:08.820Z,76.85
2019-03-16T23:02:18.201Z,76.73
2019-03-16T23:04:48.235Z,76.81
2019-03-16T23:07:18.256Z,77.56
2019-03-16T23:09:48.565Z,77.51
2019-03-16T23:12:18.623Z,77.23
2019-03-16T23:14:48.653Z,77.05
2019-03-16T23:17:18.669Z,77.16
2019-03-16T23:19:48.720Z,77.31
2019-03-16T23:22:18.750Z,77.65
2019-03-16T23:24:48.802Z,76.65
2019-03-16T23:27:18.833Z,77.01
2019-03-16T23:29:48.894Z,77.43
2019-03-16T23:34:58.284Z,77.17
2019-03-16T23:37:28.297Z,77.14
2019-03-16T23:39:58.365Z,77.90
2019-03-16T23:42:28.694Z,77.90
2019-03-16T23:44:58.746Z,78.21
2019-03-16T23:47:29.141Z,78.29
2019-03-16T23:49:59.179Z,77.70
2019-03-16T23:52:29.210Z,78.10
2019-03-16T23:54:59.278Z,77.83
2019-03-16T23:57:29.292Z,77.89
2019-03-16T23:59:59.329Z,78.47
